createdAt,value
2019-06-10T00:02:10.925Z,58.30
2019-06-10T00:04:41.524Z,58.40
2019-06-10T00:07:11.858Z,58.30
2019-06-10T00:09:40.957Z,58.30
2019-06-10T00:12:12.421Z,58.50
2019-06-10T00:14:41.899Z,57.90
2019-06-10T00:17:11.151Z,58.50
2019-06-10T00:19:40.935Z,58.70
2019-06-10T00:22:11.565Z,60.50
2019-06-10T00:24:40.991Z,64.90
2019-06-10T00:27:11.793Z,64.20
2019-06-10T00:29:40.980Z,62.00
2019-06-10T00:32:12.756Z,61.70
2019-06-10T00:34:41.926Z,62.00
2019-06-10T00:37:14.765Z,61.90
2019-06-10T00:39:41.464Z,62.40
2019-06-10T00:42:14.679Z,65.00
2019-06-10T00:44:41.658Z,67.60
2019-06-10T00:47:14.423Z,66.70
2019-06-10T00:49:41.378Z,66.80
2019-06-10T00:52:12.208Z,66.20
2019-06-10T00:54:41.764Z,67.60
2019-06-10T00:57:12.348Z,68.00
2019-06-10T00:59:41.505Z,67.40
2019-06-10T01:02:12.467Z,67.20
2019-06-10T01:04:40.924Z,66.60
2019-06-10T01:07:11.708Z,66.90
2019-06-10T01:09:41.298Z,67.70
2019-06-10T01:12:13.138Z,65.80
2019-06-10T01:14:41.190Z,64.00
2019-06-10T01:17:11.925Z,63.60
2019-06-10T01:19:41.519Z,63.80
2019-06-10T01:22:12.272Z,63.90
2019-06-10T01:24:41.313Z,64.10
2019-06-10T01:27:11.714Z,62.60
2019-06-10T01:29:41.637Z,62.50
2019-06-10T01:32:12.246Z,63.50
2019-06-10T01:34:41.694Z,62.50
2019-06-10T01:37:11.756Z,62.10
2019-06-10T01:39:41.367Z,62.20
2019-06-10T01:42:11.375Z,61.60
2019-06-10T01:44:41.307Z,61.20
2019-06-10T01:47:11.850Z,62.00
2019-06-10T01:49:41.205Z,62.50
2019-06-10T01:52:12.446Z,63.40
2019-06-10T01:54:42.023Z,61.50
2019-06-10T01:57:13.810Z,61.70
2019-06-10T01:59:41.715Z,61.60
2019-06-10T02:02:17.289Z,62.60
2019-06-10T02:04:45.622Z,61.80
2019-06-10T02:07:16.919Z,60.80
2019-06-10T02:09:45.161Z,61.70
2019-06-10T02:12:16.331Z,61.60
2019-06-10T02:14:44.448Z,61.90
2019-06-10T02:17:15.987Z,62.00
2019-06-10T02:19:43.795Z,61.70
2019-06-10T02:22:15.021Z,60.40
2019-06-10T02:24:43.144Z,61.10
2019-06-10T02:27:14.442Z,61.50
2019-06-10T02:29:42.479Z,61.50
2019-06-10T02:32:15.878Z,61.60
2019-06-10T02:34:53.195Z,60.70
2019-06-10T02:37:16.743Z,61.10
2019-06-10T02:39:43.929Z,61.20
2019-06-10T02:42:23.516Z,61.00
2019-06-10T02:44:49.654Z,64.40
2019-06-10T02:47:22.694Z,62.90
2019-06-10T02:49:59.116Z,62.20
2019-06-10T02:52:23.132Z,66.70
2019-06-10T02:54:53.458Z,66.70
2019-06-10T02:57:29.257Z,70.30
2019-06-10T02:59:54.394Z,72.60
2019-06-10T03:02:26.347Z,80.60
2019-06-10T03:04:53.563Z,87.10
2019-06-10T03:07:27.594Z,91.80
2019-06-10T03:09:53.886Z,93.40
2019-06-10T03:12:24.574Z,99.90
2019-06-10T03:14:53.509Z,99.90
2019-06-10T03:17:25.828Z,99.90
2019-06-10T03:19:54.463Z,99.90
2019-06-10T03:22:25.663Z,99.90
2019-06-10T03:24:54.019Z,99.90
2019-06-10T03:27:23.532Z,99.90
2019-06-10T03:29:53.511Z,99.90
2019-06-10T03:32:31.748Z,99.90
2019-06-10T03:34:54.747Z,99.90
2019-06-10T03:37:25.949Z,99.90
2019-06-10T03:40:05.565Z,99.90
2019-06-10T03:42:45.212Z,99.90
2019-06-10T03:45:28.389Z,99.90
2019-06-10T03:47:56.965Z,99.90
2019-06-10T03:50:27.122Z,99.90
2019-06-10T03:52:56.441Z,99.90
2019-06-10T03:55:27.942Z,99.90
2019-06-10T03:57:55.886Z,99.90
2019-06-10T04:00:27.195Z,99.90
2019-06-10T04:02:55.349Z,99.90
2019-06-10T04:05:25.778Z,99.90
2019-06-10T04:07:54.775Z,99.90
2019-06-10T04:10:24.977Z,99.90
2019-06-10T04:12:54.204Z,99.90
2019-06-10T04:15:25.137Z,99.90
2019-06-10T04:17:53.632Z,99.90
2019-06-10T04:20:25.058Z,99.90
2019-06-10T04:22:53.088Z,99.90
2019-06-10T04:25:24.684Z,99.90
2019-06-10T04:27:52.613Z,99.90
2019-06-10T04:30:24.353Z,99.90
2019-06-10T04:32:53.040Z,99.90
2019-06-10T04:35:24.273Z,99.90
2019-06-10T04:37:52.613Z,99.90
2019-06-10T04:40:23.573Z,99.90
2019-06-10T04:42:52.854Z,99.90
2019-06-10T04:45:23.579Z,99.90
2019-06-10T04:47:52.646Z,99.90
2019-06-10T04:50:30.817Z,99.90
2019-06-10T04:52:52.890Z,99.90
2019-06-10T04:55:23.570Z,99.90
2019-06-10T04:57:52.513Z,99.90
2019-06-10T05:00:24.112Z,99.90
2019-06-10T05:02:52.513Z,99.90
2019-06-10T05:05:23.677Z,99.90
2019-06-10T05:07:52.083Z,99.90
2019-06-10T05:10:23.701Z,99.90
2019-06-10T05:12:52.604Z,99.90
2019-06-10T05:15:24.385Z,99.90
2019-06-10T05:17:52.690Z,99.90
2019-06-10T05:20:28.331Z,99.90
2019-06-10T05:22:52.829Z,99.90
2019-06-10T05:25:23.644Z,99.90
2019-06-10T05:27:52.453Z,99.90
2019-06-10T05:30:22.779Z,99.90
2019-06-10T05:32:52.400Z,99.90
2019-06-10T05:35:24.191Z,99.90
2019-06-10T05:37:52.765Z,99.90
2019-06-10T05:40:23.670Z,99.90
2019-06-10T05:42:52.831Z,99.90
2019-06-10T05:45:24.465Z,99.90
2019-06-10T05:47:53.149Z,99.90
2019-06-10T05:50:23.411Z,99.90
2019-06-10T05:52:52.739Z,99.90
2019-06-10T05:55:22.870Z,99.90
2019-06-10T05:57:53.288Z,99.90
2019-06-10T06:00:29.340Z,99.90
2019-06-10T06:03:07.534Z,99.90
2019-06-10T06:05:39.366Z,99.90
2019-06-10T06:08:09.048Z,99.90
2019-06-10T06:10:38.280Z,99.90
2019-06-10T06:13:07.095Z,99.90
2019-06-10T06:15:35.932Z,99.90
2019-06-10T06:18:10.114Z,99.90
2019-06-10T06:20:35.976Z,99.90
2019-06-10T06:23:05.207Z,99.90
2019-06-10T06:25:39.770Z,99.90
2019-06-10T06:28:04.827Z,99.90
2019-06-10T06:30:36.028Z,99.90
2019-06-10T06:33:04.396Z,99.90
2019-06-10T06:35:37.615Z,99.90
2019-06-10T06:38:03.795Z,99.90
2019-06-10T06:40:34.406Z,99.90
2019-06-10T06:43:03.392Z,99.90
2019-06-10T06:45:34.024Z,99.90
2019-06-10T06:48:03.064Z,99.90
2019-06-10T06:50:34.318Z,99.90
2019-06-10T06:53:21.010Z,99.90
2019-06-10T06:55:35.247Z,99.90
2019-06-10T06:58:04.108Z,99.90
2019-06-10T07:00:48.893Z,99.90
2019-06-10T07:03:05.835Z,99.90
2019-06-10T07:05:35.964Z,99.90
2019-06-10T07:08:06.080Z,99.90
2019-06-10T07:10:37.317Z,99.90
2019-06-10T07:13:07.384Z,99.90
2019-06-10T07:15:46.984Z,99.90
2019-06-10T07:18:14.912Z,99.90
2019-06-10T07:20:45.834Z,99.90
2019-06-10T07:23:15.292Z,99.90
2019-06-10T07:25:47.210Z,99.90
2019-06-10T07:28:14.844Z,99.90
2019-06-10T07:30:51.186Z,99.90
2019-06-10T07:33:14.376Z,99.90
2019-06-10T07:35:45.034Z,99.90
2019-06-10T07:38:13.921Z,99.90
2019-06-10T07:40:45.570Z,99.90
2019-06-10T07:43:13.244Z,99.90
2019-06-10T07:45:47.612Z,99.90
2019-06-10T07:48:12.660Z,99.90
2019-06-10T07:50:44.169Z,99.90
2019-06-10T07:53:12.834Z,99.90
2019-06-10T07:55:44.756Z,99.90
2019-06-10T07:58:12.951Z,99.90
2019-06-10T08:00:46.483Z,99.90
2019-06-10T08:03:12.924Z,99.90
2019-06-10T08:05:44.384Z,99.90
2019-06-10T08:08:13.005Z,99.90
2019-06-10T08:10:44.727Z,99.90
2019-06-10T08:13:12.699Z,99.90
2019-06-10T08:15:44.057Z,99.90
2019-06-10T08:18:13.097Z,99.90
2019-06-10T08:20:45.458Z,99.90
2019-06-10T08:23:16.392Z,99.90
2019-06-10T08:25:52.954Z,99.90
2019-06-10T08:28:16.472Z,99.90
2019-06-10T08:30:46.121Z,99.90
2019-06-10T08:33:15.416Z,99.90
2019-06-10T08:35:53.608Z,99.90
2019-06-10T08:38:15.082Z,99.90
2019-06-10T08:40:45.396Z,99.90
2019-06-10T08:43:14.576Z,99.90
2019-06-10T08:45:45.451Z,99.90
2019-06-10T08:48:14.271Z,99.90
2019-06-10T08:50:47.439Z,99.90
2019-06-10T08:53:17.823Z,99.90
2019-06-10T08:55:46.101Z,99.90
2019-06-10T08:58:14.722Z,99.90
2019-06-10T09:00:46.059Z,99.90
2019-06-10T09:03:14.112Z,99.90
2019-06-10T09:05:46.516Z,99.90
2019-06-10T09:08:13.583Z,99.90
2019-06-10T09:10:46.244Z,99.90
2019-06-10T09:13:13.500Z,99.90
2019-06-10T09:15:45.050Z,99.90
2019-06-10T09:18:20.195Z,99.90
2019-06-10T09:20:52.805Z,99.90
2019-06-10T09:23:24.835Z,99.90
2019-06-10T09:25:54.429Z,99.90
2019-06-10T09:28:23.479Z,99.90
2019-06-10T09:30:57.887Z,99.90
2019-06-10T09:33:23.055Z,99.90
2019-06-10T09:35:54.961Z,99.90
2019-06-10T09:38:22.827Z,99.90
2019-06-10T09:41:00.941Z,99.90
2019-06-10T09:43:24.304Z,99.90
2019-06-10T09:45:56.324Z,99.90
2019-06-10T09:48:24.442Z,99.90
2019-06-10T09:50:57.833Z,99.90
2019-06-10T09:53:33.881Z,99.90
2019-06-10T09:55:55.696Z,99.90
2019-06-10T09:58:24.848Z,99.90
2019-06-10T10:00:57.687Z,99.90
2019-06-10T10:03:25.782Z,99.90
2019-06-10T10:06:09.366Z,99.90
2019-06-10T10:08:25.829Z,99.90
2019-06-10T10:10:58.732Z,99.90
2019-06-10T10:13:25.605Z,99.90
2019-06-10T10:15:54.487Z,99.90
2019-06-10T10:18:23.705Z,99.90
2019-06-10T10:20:58.377Z,99.90
2019-06-10T10:23:23.215Z,99.90
2019-06-10T10:25:56.767Z,99.90
2019-06-10T10:28:25.453Z,99.90
2019-06-10T10:30:57.612Z,99.90
2019-06-10T10:33:29.013Z,99.90
2019-06-10T10:35:54.648Z,99.90
2019-06-10T10:38:23.505Z,99.90
2019-06-10T10:40:58.334Z,99.90
2019-06-10T10:43:32.081Z,99.90
2019-06-10T10:45:59.890Z,99.90
2019-06-10T10:48:24.126Z,99.90
2019-06-10T10:50:56.031Z,99.90
2019-06-10T10:53:23.876Z,99.90
2019-06-10T10:55:53.548Z,99.90
2019-06-10T10:58:23.010Z,99.90
2019-06-10T11:00:56.276Z,99.90
2019-06-10T11:03:23.123Z,99.90
2019-06-10T11:06:00.509Z,99.90
2019-06-10T11:08:23.457Z,99.90
2019-06-10T11:10:57.823Z,99.90
2019-06-10T11:13:25.927Z,99.90
2019-06-10T11:15:56.415Z,99.90
2019-06-10T11:18:25.370Z,99.90
2019-06-10T11:20:54.333Z,99.90
2019-06-10T11:23:23.221Z,99.90
2019-06-10T11:25:56.563Z,99.90
2019-06-10T11:28:22.959Z,99.90
2019-06-10T11:30:56.356Z,99.90
2019-06-10T11:33:22.871Z,99.90
2019-06-10T11:35:55.100Z,99.90
2019-06-10T11:38:23.415Z,99.90
2019-06-10T11:40:57.720Z,99.90
2019-06-10T11:43:23.209Z,99.90
2019-06-10T11:45:58.882Z,99.90
2019-06-10T11:48:23.801Z,99.90
2019-06-10T11:50:56.728Z,99.90
2019-06-10T11:53:23.928Z,99.90
2019-06-10T11:55:53.794Z,99.90
2019-06-10T11:58:22.901Z,99.90
2019-06-10T12:00:55.660Z,99.90
2019-06-10T12:03:23.146Z,99.90
2019-06-10T12:05:55.490Z,99.90
2019-06-10T12:08:23.692Z,99.90
2019-06-10T12:10:58.288Z,99.90
2019-06-10T12:13:23.610Z,99.90
2019-06-10T12:16:42.443Z,99.90
2019-06-10T12:18:23.178Z,99.90
2019-06-10T12:20:55.917Z,99.90
2019-06-10T12:23:22.612Z,99.90
2019-06-10T12:25:54.466Z,99.90
2019-06-10T12:28:22.156Z,99.90
2019-06-10T12:30:55.627Z,99.90
2019-06-10T12:33:25.204Z,99.90
2019-06-10T12:35:56.546Z,99.80
2019-06-10T12:38:23.145Z,98.70
2019-06-10T12:40:55.996Z,98.50
2019-06-10T12:43:23.203Z,99.90
2019-06-10T12:45:54.289Z,99.00
2019-06-10T12:48:23.035Z,97.70
2019-06-10T12:50:53.885Z,98.90
2019-06-10T12:53:22.983Z,99.90
2019-06-10T12:55:53.635Z,99.90
2019-06-10T12:58:22.776Z,99.90
2019-06-10T13:00:53.282Z,99.90
2019-06-10T13:03:23.647Z,97.90
2019-06-10T13:05:53.722Z,99.20
2019-06-10T13:08:23.933Z,99.90
2019-06-10T13:10:53.536Z,99.90
2019-06-10T13:13:22.816Z,97.50
2019-06-10T13:15:53.196Z,98.80
2019-06-10T13:18:23.762Z,99.30
2019-06-10T13:20:54.061Z,98.00
2019-06-10T13:23:30.797Z,98.80
2019-06-10T13:25:58.818Z,98.90
2019-06-10T13:28:24.687Z,98.10
2019-06-10T13:30:54.632Z,99.20
2019-06-10T13:33:24.389Z,99.90
2019-06-10T13:35:53.881Z,99.50
2019-06-10T13:38:25.729Z,98.60
2019-06-10T13:40:53.633Z,95.90
2019-06-10T13:43:23.127Z,96.70
2019-06-10T13:45:53.290Z,97.30
2019-06-10T13:48:23.355Z,96.40
2019-06-10T13:50:53.124Z,97.00
2019-06-10T13:53:22.351Z,95.80
2019-06-10T13:56:00.640Z,96.90
2019-06-10T13:58:23.074Z,96.90
2019-06-10T14:00:53.732Z,97.80
2019-06-10T14:03:23.081Z,96.90
2019-06-10T14:05:57.664Z,96.60
2019-06-10T14:08:24.298Z,95.40
2019-06-10T14:10:56.004Z,95.60
2019-06-10T14:13:27.280Z,95.30
2019-06-10T14:15:56.337Z,95.30
2019-06-10T14:18:25.229Z,96.40
2019-06-10T14:20:54.125Z,97.10
2019-06-10T14:23:23.196Z,97.90
2019-06-10T14:25:52.689Z,97.90
2019-06-10T14:28:38.695Z,98.60
2019-06-10T14:30:53.821Z,98.50
2019-06-10T14:33:23.506Z,98.70
2019-06-10T14:35:53.334Z,99.00
2019-06-10T14:38:22.627Z,97.40
2019-06-10T14:40:52.465Z,97.40
2019-06-10T14:43:23.211Z,97.60
2019-06-10T14:45:53.359Z,98.20
2019-06-10T14:48:25.705Z,97.60
2019-06-10T14:50:54.593Z,98.40
2019-06-10T14:53:23.413Z,97.90
2019-06-10T14:55:53.277Z,98.20
2019-06-10T14:58:23.269Z,99.00
2019-06-10T15:00:54.157Z,98.90
2019-06-10T15:03:22.990Z,99.00
2019-06-10T15:05:52.955Z,99.90
2019-06-10T15:08:23.016Z,98.40
2019-06-10T15:10:52.936Z,98.40
2019-06-10T15:13:23.574Z,99.30
2019-06-10T15:15:53.360Z,99.30
2019-06-10T15:18:23.783Z,99.30
2019-06-10T15:20:53.588Z,99.70
2019-06-10T15:23:23.597Z,99.90
2019-06-10T15:25:56.513Z,99.90
2019-06-10T15:28:23.797Z,99.90
2019-06-10T15:30:52.967Z,99.60
2019-06-10T15:33:23.608Z,98.10
2019-06-10T15:35:53.556Z,98.00
2019-06-10T15:38:23.335Z,98.90
2019-06-10T15:40:53.388Z,99.70
2019-06-10T15:43:23.526Z,99.90
2019-06-10T15:45:53.092Z,99.90
2019-06-10T15:48:25.447Z,99.10
2019-06-10T15:50:54.282Z,99.60
2019-06-10T15:53:25.696Z,98.80
2019-06-10T15:56:13.036Z,99.40
2019-06-10T15:58:26.003Z,99.90
2019-06-10T16:00:55.425Z,99.90
2019-06-10T16:03:25.651Z,99.90
2019-06-10T16:05:54.980Z,99.90
2019-06-10T16:08:24.017Z,99.90
2019-06-10T16:10:53.009Z,99.90
2019-06-10T16:13:25.585Z,99.90
2019-06-10T16:15:53.247Z,99.90
2019-06-10T16:18:25.912Z,99.90
2019-06-10T16:20:53.262Z,99.90
2019-06-10T16:23:24.534Z,99.50
2019-06-10T16:25:53.645Z,99.90
2019-06-10T16:28:24.744Z,99.90
2019-06-10T16:30:54.008Z,99.90
2019-06-10T16:33:27.651Z,99.90
2019-06-10T16:35:56.448Z,99.90
2019-06-10T16:38:44.544Z,99.90
2019-06-10T16:41:13.359Z,99.90
2019-06-10T16:43:42.835Z,99.90
2019-06-10T16:46:11.990Z,99.90
2019-06-10T16:48:43.405Z,99.90
2019-06-10T16:51:13.226Z,99.90
2019-06-10T16:53:42.694Z,99.90
2019-06-10T16:56:12.151Z,99.90
2019-06-10T16:58:43.285Z,99.90
2019-06-10T17:01:12.607Z,99.90
2019-06-10T17:03:42.468Z,99.90
2019-06-10T17:06:13.123Z,99.90
2019-06-10T17:08:42.748Z,99.90
2019-06-10T17:11:12.458Z,99.90
2019-06-10T17:13:42.244Z,99.90
2019-06-10T17:16:12.716Z,99.90
2019-06-10T17:18:41.942Z,99.90
2019-06-10T17:21:13.231Z,99.90
2019-06-10T17:23:43.388Z,99.90
2019-06-10T17:26:12.321Z,99.90
2019-06-10T17:28:44.318Z,99.90
2019-06-10T17:31:13.278Z,99.90
2019-06-10T17:33:42.819Z,99.90
2019-06-10T17:36:12.652Z,99.90
2019-06-10T17:38:42.918Z,99.90
2019-06-10T17:41:13.234Z,99.90
2019-06-10T17:43:42.970Z,99.90
2019-06-10T17:46:14.714Z,99.90
2019-06-10T17:48:43.697Z,99.90
2019-06-10T17:51:12.634Z,99.90
2019-06-10T17:53:42.689Z,99.90
2019-06-10T17:56:13.294Z,99.90
2019-06-10T17:58:51.628Z,99.90
2019-06-10T18:01:13.564Z,99.90
2019-06-10T18:03:43.024Z,99.90
2019-06-10T18:06:13.353Z,99.90
2019-06-10T18:08:42.658Z,99.90
2019-06-10T18:11:12.708Z,99.90
2019-06-10T18:13:42.837Z,99.90
2019-06-10T18:16:13.177Z,99.90
2019-06-10T18:18:42.715Z,99.90
2019-06-10T18:21:12.674Z,99.90
2019-06-10T18:23:43.426Z,99.90
2019-06-10T18:26:13.405Z,99.90
2019-06-10T18:29:00.975Z,99.90
2019-06-10T18:31:13.993Z,99.90
2019-06-10T18:33:42.973Z,99.90
2019-06-10T18:36:12.204Z,99.90
2019-06-10T18:38:43.385Z,99.90
2019-06-10T18:41:12.863Z,99.90
2019-06-10T18:43:43.288Z,99.90
2019-06-10T18:46:12.760Z,99.90
2019-06-10T18:48:43.136Z,99.90
2019-06-10T18:51:12.674Z,99.90
2019-06-10T18:53:45.235Z,99.90
2019-06-10T18:56:14.110Z,99.90
2019-06-10T18:58:43.125Z,99.90
2019-06-10T19:01:12.589Z,99.90
2019-06-10T19:03:43.044Z,99.90
2019-06-10T19:06:22.903Z,99.90
2019-06-10T19:08:53.044Z,99.90
2019-06-10T19:11:22.318Z,99.90
2019-06-10T19:13:52.940Z,99.90
2019-06-10T19:16:23.463Z,99.90
2019-06-10T19:18:53.023Z,99.90
2019-06-10T19:21:22.308Z,99.90
2019-06-10T19:23:53.153Z,99.90
2019-06-10T19:26:22.184Z,99.90
2019-06-10T19:28:53.341Z,99.90
2019-06-10T19:31:21.790Z,99.90
2019-06-10T19:33:51.951Z,99.90
2019-06-10T19:36:23.152Z,99.90
2019-06-10T19:38:51.796Z,99.90
2019-06-10T19:41:22.363Z,99.90
2019-06-10T19:43:52.986Z,99.90
2019-06-10T19:46:23.473Z,99.90
2019-06-10T19:48:59.561Z,99.90
2019-06-10T19:51:23.355Z,99.90
2019-06-10T19:53:52.787Z,99.90
2019-06-10T19:56:26.536Z,99.90
2019-06-10T19:58:55.258Z,99.90
2019-06-10T20:01:24.607Z,99.90
2019-06-10T20:03:53.493Z,99.90
2019-06-10T20:06:22.436Z,99.90
2019-06-10T20:08:52.265Z,99.90
2019-06-10T20:11:22.873Z,99.90
2019-06-10T20:13:53.086Z,99.90
2019-06-10T20:16:22.183Z,99.90
2019-06-10T20:18:53.622Z,99.90
2019-06-10T20:21:22.685Z,99.90
2019-06-10T20:23:53.000Z,99.90
2019-06-10T20:26:22.641Z,99.90
2019-06-10T20:28:54.870Z,99.90
2019-06-10T20:31:22.365Z,99.90
2019-06-10T20:33:52.335Z,99.90
2019-06-10T20:36:26.285Z,99.90
2019-06-10T20:38:53.506Z,99.90
2019-06-10T20:41:22.533Z,99.90
2019-06-10T20:43:55.115Z,99.90
2019-06-10T20:46:23.521Z,99.90
2019-06-10T20:48:54.597Z,99.90
2019-06-10T20:51:26.858Z,99.90
2019-06-10T20:53:53.770Z,99.90
2019-06-10T20:56:23.283Z,99.90
2019-06-10T20:58:52.640Z,99.90
2019-06-10T21:01:25.128Z,99.90
2019-06-10T21:03:54.179Z,99.90
2019-06-10T21:06:24.713Z,99.90
2019-06-10T21:08:54.652Z,99.90
2019-06-10T21:11:23.578Z,99.90
2019-06-10T21:13:54.968Z,99.90
2019-06-10T21:16:23.120Z,99.90
2019-06-10T21:18:55.473Z,99.90
2019-06-10T21:21:22.914Z,99.90
2019-06-10T21:23:54.615Z,99.90
2019-06-10T21:26:23.845Z,99.90
2019-06-10T21:28:55.094Z,99.90
2019-06-10T21:31:29.512Z,99.90
2019-06-10T21:33:56.503Z,99.90
2019-06-10T21:36:25.463Z,99.90
2019-06-10T21:38:55.714Z,99.90
2019-06-10T21:41:25.202Z,99.90
2019-06-10T21:43:59.263Z,99.90
2019-06-10T21:46:24.791Z,99.90
2019-06-10T21:48:55.931Z,99.90
2019-06-10T21:51:24.268Z,99.90
2019-06-10T21:53:54.889Z,99.90
2019-06-10T21:56:23.821Z,99.90
2019-06-10T21:58:54.127Z,99.90
2019-06-10T22:01:23.804Z,99.90
2019-06-10T22:03:58.711Z,99.90
2019-06-10T22:06:23.439Z,99.90
2019-06-10T22:09:04.227Z,99.90
2019-06-10T22:11:33.327Z,99.90
2019-06-10T22:14:02.841Z,99.90
2019-06-10T22:16:32.930Z,99.90
2019-06-10T22:19:03.148Z,99.90
2019-06-10T22:21:32.780Z,99.90
2019-06-10T22:24:02.240Z,99.90
2019-06-10T22:26:32.242Z,99.90
2019-06-10T22:29:01.412Z,99.90
2019-06-10T22:31:32.506Z,99.90
2019-06-10T22:34:03.214Z,99.90
2019-06-10T22:36:32.655Z,99.90
2019-06-10T22:39:03.213Z,99.90
2019-06-10T22:41:32.534Z,99.90
2019-06-10T22:44:03.480Z,99.90
2019-06-10T22:46:32.242Z,99.90
2019-06-10T22:49:02.997Z,99.90
2019-06-10T22:51:32.952Z,99.90
2019-06-10T22:54:03.501Z,99.90
2019-06-10T22:56:32.769Z,99.90
2019-06-10T22:59:03.326Z,99.90
2019-06-10T23:01:37.996Z,99.90
2019-06-10T23:04:03.885Z,99.90
2019-06-10T23:06:33.911Z,99.90
2019-06-10T23:09:03.297Z,99.90
2019-06-10T23:11:32.432Z,99.90
2019-06-10T23:14:03.204Z,99.90
2019-06-10T23:16:32.167Z,99.90
2019-06-10T23:19:02.925Z,99.90
2019-06-10T23:21:31.963Z,99.90
2019-06-10T23:24:03.199Z,99.90
2019-06-10T23:26:33.181Z,99.90
2019-06-10T23:29:03.245Z,99.90
2019-06-10T23:31:48.384Z,99.90
2019-06-10T23:34:03.307Z,99.90
2019-06-10T23:36:32.812Z,99.90
2019-06-10T23:39:03.964Z,99.90
2019-06-10T23:41:32.874Z,99.90
2019-06-10T23:44:04.252Z,99.90
2019-06-10T23:46:32.608Z,99.90
2019-06-10T23:49:04.380Z,99.90
2019-06-10T23:51:33.220Z,99.90
2019-06-10T23:54:06.008Z,99.90
2019-06-10T23:56:33.214Z,99.90
2019-06-10T23:59:03.451Z,99.90
